Decoded Metar for ULLI (ST. PETERSBURG in RUSSIA) (IATA:LED) | Meteo·Mobile Aviation Weather
aviador You're here:

ULLI Decoded Metar

ST. PETERSBURG in RUSSIA
Report Time2018-08-17 14:30:00
UTC Time2018-08-17 14:42:46
Flight Rules vfr VFR
Wind190° at 10 kt
W.Decomp.*RWY 10: 1.6 kt HW 9.9 kt RCW
W.Rank190° ranks 17
Current wind is above 190° avg. (7.2)
Visibility9999 m
Phenomena:N/A
Clouds:Scattered 046 Hf
Expected CloudBase > 4,400 ft AGL from Temp-Dew spread
CeilingNone
Temp24°C (ISA +9)
Dew Point13°C (50% RH)
AAT21.3°C
QNH1021 hPa
Density Alt994 ft
Elevation13 ft
Report Wrong Elevation
Raw Report
METAR ULLI 171430Z 19005MPS 9999 SCT046 24/13 Q1021 R10L/090060
NOSIG=

Extra information for ULLI:More info

Metar Taf Metar & Taf Last 4 Metars F.Rules Stats Wind Profile Meteogram Temp Stats Airport Information Weather charts Add Link Nearby VenuesMetar ALERT Operation Metar Decoded Social comments